createdAt,value
2022-11-29T00:00:19.158Z,8.10
2022-11-29T00:03:09.861Z,7.03
2022-11-29T00:08:37.094Z,7.63
2022-11-29T00:14:34.420Z,7.30
2022-11-29T00:17:24.139Z,6.77
2022-11-29T00:20:14.646Z,7.07
2022-11-29T00:25:43.931Z,6.90
2022-11-29T00:28:32.432Z,7.10
2022-11-29T00:31:22.913Z,6.60
2022-11-29T00:34:12.731Z,6.20
2022-11-29T00:39:43.554Z,6.80
2022-11-29T00:42:32.901Z,6.20
2022-11-29T00:48:08.374Z,6.57
2022-11-29T00:53:41.594Z,5.50
2022-11-29T00:59:17.606Z,5.77
2022-11-29T01:05:09.370Z,5.10
2022-11-29T01:10:48.453Z,4.93
2022-11-29T01:16:22.184Z,4.30
2022-11-29T01:21:59.365Z,4.13
2022-11-29T01:24:47.972Z,4.00
2022-11-29T01:30:25.429Z,3.60
2022-11-29T01:33:13.790Z,3.50
2022-11-29T01:38:46.137Z,3.60
2022-11-29T01:41:36.775Z,3.63
2022-11-29T01:45:03.955Z,3.40
2022-11-29T01:50:42.952Z,3.50
2022-11-29T01:53:32.726Z,3.60
2022-11-29T01:56:32.945Z,3.30
2022-11-29T01:59:23.243Z,3.40
2022-11-29T02:05:01.678Z,3.73
2022-11-29T02:10:40.250Z,3.70
2022-11-29T02:22:00.211Z,4.30
2022-11-29T02:28:46.478Z,4.30
2022-11-29T02:32:18.474Z,3.97
2022-11-29T02:38:09.650Z,4.50
2022-11-29T02:44:46.970Z,5.23
2022-11-29T02:47:41.230Z,5.00
2022-11-29T02:50:37.709Z,5.43
2022-11-29T02:53:30.968Z,4.40
2022-11-29T02:56:24.015Z,4.30
2022-11-29T02:59:16.061Z,4.10
2022-11-29T03:04:56.005Z,4.30
2022-11-29T03:10:38.438Z,4.10
2022-11-29T03:16:22.593Z,4.10
2022-11-29T03:24:55.852Z,4.23
2022-11-29T03:27:48.003Z,4.23
2022-11-29T03:33:23.730Z,3.90
2022-11-29T03:41:56.619Z,4.13
2022-11-29T03:47:29.378Z,3.87
2022-11-29T03:53:13.294Z,3.77
2022-11-29T03:56:04.791Z,4.20
2022-11-29T03:58:56.760Z,3.73
2022-11-29T04:02:19.629Z,4.03
2022-11-29T04:05:43.318Z,4.23
2022-11-29T04:09:06.981Z,4.60
2022-11-29T04:12:35.018Z,4.70
2022-11-29T04:19:12.551Z,4.87
2022-11-29T04:25:35.401Z,5.50
2022-11-29T04:31:28.115Z,5.50
2022-11-29T04:38:27.489Z,5.73
2022-11-29T04:47:39.297Z,5.53
2022-11-29T04:53:37.614Z,5.50
2022-11-29T04:59:27.661Z,5.87
2022-11-29T05:05:07.177Z,5.00
2022-11-29T05:08:01.578Z,4.93
2022-11-29T05:13:54.858Z,5.00
2022-11-29T05:16:52.362Z,4.70
2022-11-29T05:19:49.557Z,4.87
2022-11-29T05:22:41.490Z,5.20
2022-11-29T05:28:34.503Z,4.77
2022-11-29T05:34:41.364Z,4.47
2022-11-29T05:40:30.878Z,5.27
2022-11-29T05:43:49.551Z,5.00
2022-11-29T05:49:32.590Z,4.23
2022-11-29T05:52:24.933Z,4.53
2022-11-29T05:55:25.050Z,4.40
2022-11-29T06:11:51.031Z,4.60
2022-11-29T06:17:55.200Z,4.50
2022-11-29T06:20:55.467Z,4.33
2022-11-29T06:29:43.311Z,4.70
2022-11-29T06:35:40.485Z,3.63
2022-11-29T06:41:22.321Z,4.10
2022-11-29T06:44:12.971Z,4.10
2022-11-29T06:49:55.828Z,4.47
2022-11-29T06:55:30.104Z,4.40
2022-11-29T06:58:31.453Z,4.20
2022-11-29T07:01:23.538Z,4.00
2022-11-29T07:04:25.661Z,4.23
2022-11-29T07:09:59.444Z,4.37
2022-11-29T07:12:49.950Z,4.37
2022-11-29T07:15:39.173Z,4.90
2022-11-29T07:21:19.866Z,4.27
2022-11-29T07:24:11.912Z,4.53
2022-11-29T07:27:07.832Z,4.23
2022-11-29T07:30:05.791Z,4.90
2022-11-29T07:33:00.637Z,4.60
2022-11-29T07:38:34.713Z,4.50
2022-11-29T07:44:16.522Z,4.20
2022-11-29T07:49:44.859Z,5.33
2022-11-29T07:52:32.981Z,4.70
2022-11-29T07:55:22.966Z,4.90
2022-11-29T08:00:51.962Z,4.73
2022-11-29T08:06:27.882Z,4.27
2022-11-29T08:12:03.136Z,5.07
2022-11-29T08:17:39.034Z,4.57
2022-11-29T08:23:13.702Z,4.60
2022-11-29T08:26:03.165Z,4.63
2022-11-29T08:31:45.396Z,5.10
2022-11-29T08:37:17.860Z,4.93
2022-11-29T08:42:47.434Z,4.77
2022-11-29T08:48:23.057Z,3.77
2022-11-29T08:53:52.646Z,5.20
2022-11-29T08:59:29.023Z,4.33
2022-11-29T09:02:19.148Z,4.40
2022-11-29T09:07:51.881Z,4.20
2022-11-29T09:13:23.590Z,3.87
2022-11-29T09:19:02.040Z,4.43
2022-11-29T09:21:50.615Z,4.03
2022-11-29T09:24:39.200Z,4.60
2022-11-29T09:30:23.654Z,4.40
2022-11-29T09:36:00.156Z,4.00
2022-11-29T09:42:03.942Z,4.23
2022-11-29T09:45:00.523Z,4.53
2022-11-29T09:48:00.588Z,4.33
2022-11-29T09:50:51.651Z,4.17
2022-11-29T09:56:31.872Z,4.40
2022-11-29T10:02:21.127Z,3.60
2022-11-29T10:05:10.144Z,3.70
2022-11-29T10:10:49.844Z,3.57
2022-11-29T10:16:28.424Z,3.30
2022-11-29T10:25:00.658Z,3.23
2022-11-29T10:30:31.176Z,3.67
2022-11-29T10:36:04.159Z,3.70
2022-11-29T10:38:53.404Z,3.20
2022-11-29T10:44:29.150Z,3.70
2022-11-29T10:50:06.750Z,5.10
2022-11-29T10:55:45.644Z,3.50
2022-11-29T10:58:34.950Z,2.97
2022-11-29T11:04:17.110Z,3.33
2022-11-29T11:07:06.506Z,2.80
2022-11-29T11:13:03.639Z,2.57
2022-11-29T11:18:32.304Z,3.43
2022-11-29T11:24:06.481Z,3.83
2022-11-29T11:29:38.606Z,3.30
2022-11-29T11:35:23.033Z,3.43
2022-11-29T11:38:18.348Z,3.73
2022-11-29T11:41:12.472Z,3.90
2022-11-29T11:46:51.200Z,4.53
2022-11-29T11:52:28.846Z,3.73
2022-11-29T11:58:22.667Z,4.17
2022-11-29T12:01:21.194Z,4.43
2022-11-29T12:04:15.923Z,4.37
2022-11-29T12:13:02.740Z,4.23
2022-11-29T12:18:48.663Z,4.47
2022-11-29T12:24:45.771Z,3.40
2022-11-29T12:27:34.017Z,3.37
2022-11-29T12:33:33.786Z,2.93
2022-11-29T12:39:31.945Z,3.63
2022-11-29T12:45:18.632Z,2.80
2022-11-29T12:48:17.905Z,3.20
2022-11-29T13:00:10.689Z,2.10
2022-11-29T13:05:51.960Z,2.47
2022-11-29T13:14:43.374Z,2.37
2022-11-29T13:20:09.220Z,2.80
2022-11-29T13:23:02.185Z,2.10
2022-11-29T13:28:42.687Z,2.10
2022-11-29T13:31:32.318Z,2.37
2022-11-29T13:39:57.974Z,2.37
2022-11-29T13:49:01.408Z,3.23
2022-11-29T13:54:58.783Z,2.80
2022-11-29T14:00:39.107Z,2.40
2022-11-29T14:07:09.223Z,2.57
2022-11-29T14:10:09.438Z,1.77
2022-11-29T14:13:06.579Z,2.90
2022-11-29T14:16:03.087Z,2.70
2022-11-29T14:22:33.769Z,2.67
2022-11-29T14:28:33.003Z,3.13
2022-11-29T14:31:55.265Z,2.90
2022-11-29T14:34:50.219Z,3.07
2022-11-29T14:40:32.750Z,3.27
2022-11-29T14:46:27.736Z,2.60
2022-11-29T14:52:25.030Z,2.33
2022-11-29T14:55:32.693Z,2.53
2022-11-29T15:01:11.943Z,1.93
2022-11-29T15:06:53.071Z,1.90
2022-11-29T15:09:45.796Z,2.50
2022-11-29T15:12:40.415Z,1.70
2022-11-29T15:18:45.246Z,1.80
2022-11-29T15:24:40.298Z,1.57
2022-11-29T15:30:28.340Z,1.17
2022-11-29T15:36:11.008Z,1.20
2022-11-29T15:44:35.363Z,1.00
2022-11-29T15:47:28.832Z,0.90
2022-11-29T15:50:27.747Z,0.70
2022-11-29T15:56:18.113Z,3.27
2022-11-29T16:02:00.201Z,3.30
2022-11-29T16:07:35.942Z,1.47
2022-11-29T16:13:26.099Z,1.30
2022-11-29T16:22:03.672Z,1.40
2022-11-29T16:25:01.597Z,2.10
2022-11-29T16:33:28.134Z,1.97
2022-11-29T16:36:18.520Z,1.80
2022-11-29T16:39:10.240Z,1.77
2022-11-29T16:45:13.430Z,2.10
2022-11-29T16:51:20.632Z,2.60
2022-11-29T16:54:25.717Z,2.70
2022-11-29T16:57:13.930Z,3.13
2022-11-29T17:02:43.911Z,3.27
2022-11-29T17:05:32.261Z,2.63
2022-11-29T17:08:20.957Z,3.13
2022-11-29T17:13:56.153Z,2.90
2022-11-29T17:19:25.993Z,2.23
2022-11-29T17:24:59.059Z,2.00
2022-11-29T17:30:31.040Z,1.87
2022-11-29T17:36:07.364Z,1.93
2022-11-29T17:41:44.068Z,1.90
2022-11-29T17:44:33.777Z,1.70
2022-11-29T17:47:22.271Z,2.27
2022-11-29T17:52:52.516Z,1.80
2022-11-29T17:55:41.935Z,2.20
2022-11-29T18:01:40.989Z,2.43
2022-11-29T18:04:29.445Z,2.87
2022-11-29T18:10:03.976Z,3.07
2022-11-29T18:12:53.194Z,2.87
2022-11-29T18:15:43.769Z,3.73
2022-11-29T18:18:35.832Z,3.53
2022-11-29T18:24:09.368Z,3.60
2022-11-29T18:29:56.155Z,4.10
2022-11-29T18:32:46.372Z,4.57
2022-11-29T18:38:16.415Z,3.33
2022-11-29T18:44:02.717Z,4.00
2022-11-29T18:49:38.630Z,4.47
2022-11-29T18:52:26.794Z,7.83
2022-11-29T18:58:03.903Z,7.77
2022-11-29T19:03:36.233Z,5.10
2022-11-29T19:09:26.506Z,4.60
2022-11-29T19:12:14.811Z,5.00
2022-11-29T19:21:59.798Z,4.17
2022-11-29T19:27:28.708Z,3.90
2022-11-29T19:33:16.277Z,3.93
2022-11-29T19:41:31.478Z,4.30
2022-11-29T19:47:06.562Z,4.27
2022-11-29T19:52:47.020Z,4.10
2022-11-29T20:01:11.863Z,3.50
2022-11-29T20:06:48.847Z,2.50
2022-11-29T20:12:22.347Z,2.50
2022-11-29T20:17:55.800Z,2.50
2022-11-29T20:23:34.779Z,3.20
2022-11-29T20:29:04.464Z,4.70
2022-11-29T20:34:36.223Z,5.80
2022-11-29T20:43:39.901Z,7.47
2022-11-29T20:46:29.997Z,7.40
2022-11-29T20:54:47.278Z,6.43
2022-11-29T21:00:24.646Z,5.27
2022-11-29T21:06:10.817Z,4.63
2022-11-29T21:08:58.730Z,3.70
2022-11-29T21:11:48.038Z,3.70
2022-11-29T21:17:47.971Z,2.60
2022-11-29T21:27:28.232Z,2.80
2022-11-29T21:33:15.351Z,2.53
2022-11-29T21:39:05.191Z,2.50
2022-11-29T21:44:33.019Z,2.17
2022-11-29T21:50:10.357Z,2.70
2022-11-29T21:56:01.257Z,3.30
2022-11-29T21:58:50.306Z,3.73
2022-11-29T22:01:38.784Z,3.40
2022-11-29T22:07:12.584Z,3.43
2022-11-29T22:10:04.324Z,3.40
2022-11-29T22:12:58.112Z,4.03
2022-11-29T22:18:43.202Z,3.77
2022-11-29T22:24:20.745Z,4.30
2022-11-29T22:27:11.876Z,3.27
2022-11-29T22:30:00.570Z,4.47
2022-11-29T22:35:38.174Z,4.50
2022-11-29T22:38:26.761Z,5.07
2022-11-29T22:46:51.935Z,5.43
2022-11-29T22:52:23.220Z,5.03
2022-11-29T22:57:58.110Z,5.57
2022-11-29T23:03:29.357Z,5.33
2022-11-29T23:06:19.609Z,4.87
2022-11-29T23:11:57.568Z,5.30
2022-11-29T23:14:55.794Z,4.90
2022-11-29T23:20:24.176Z,5.43
2022-11-29T23:23:14.430Z,4.80
2022-11-29T23:26:02.907Z,5.90
2022-11-29T23:28:52.560Z,5.53
2022-11-29T23:31:41.352Z,5.33
2022-11-29T23:34:29.945Z,5.03
2022-11-29T23:37:18.778Z,5.33
2022-11-29T23:42:53.535Z,4.03
2022-11-29T23:45:42.062Z,4.77
2022-11-29T23:51:22.661Z,4.80
2022-11-29T23:56:51.691Z,4.50
2022-11-29T23:59:42.988Z,4.90
